Caribe Navigator — V2PW6 — position and weather

sailwx.info

Track history (hours):
 
Tides and Currents Weather Stations Pressure Air Temp Water Temp Dewpoint Dewpoint Depression Visibility Wind Speed Wind Dir Waves Ship Positions

Caribe Navigator

Last reported at 2016-Sep-29 08:32 UTC. Time now 2016-Sep-29 11:52 UTC.
Position N 26°05' W 080°07'.

Length 100 m; draft 15.2 m.

Type: Cargo ship. MMSI: 305289000.

Date/timePositionNaut miles runAvg speedWind from/ knotsBaromVisibWave heightAir tempDewpointWater temp
2016-Sep-29 08:32N 26°05' W 080°07'0 0.0
2016-Sep-29 07:32N 26°05' W 080°07'0 0.0
2016-Sep-29 00:23N 26°05' W 080°07'0 0.0
2016-Sep-28 21:26N 26°05' W 080°07'0 0.0
2016-Sep-28 19:26N 26°05' W 080°07'0 0.0
2016-Sep-28 16:29N 26°05' W 080°07'0 0.0
2016-Sep-28 15:29N 26°05' W 080°07'0 0.0
2016-Sep-28 12:32N 26°05' W 080°07'0 0.0
2016-Sep-28 08:31N 26°05' W 080°07'0 0.0
2016-Sep-28 03:31N 26°05' W 080°07'0 0.0
2016-Sep-28 02:31N 26°05' W 080°07'0 0.0
2016-Sep-28 01:31N 26°05' W 080°07'7 3.7
2016-Sep-27 23:33N 25°59' W 080°03'15 3.6
2016-Sep-27 19:33N 25°46' W 080°10'0 0.0
2016-Sep-27 14:32N 25°46' W 080°10'0 0.0
2016-Sep-27 13:32N 25°46' W 080°10'0 0.0
2016-Sep-27 10:33N 25°46' W 080°10'  
2016-Sep-22 23:17N 25°21' W 080°02'2810.2
2016-Sep-22 20:33N 25°48' W 080°02'18 2.2
2016-Sep-22 12:25N 26°05' W 080°07'0 0.0
2016-Sep-22 04:31N 26°05' W 080°07'0 0.0
2016-Sep-22 03:28N 26°05' W 080°07'0 0.0
2016-Sep-22 00:19N 26°05' W 080°07'0 0.0
2016-Sep-21 23:31N 26°05' W 080°07'0 0.0
2016-Sep-21 22:31N 26°05' W 080°07'0 0.0
2016-Sep-21 19:22N 26°05' W 080°07'0 0.0
2016-Sep-21 16:25N 26°05' W 080°07'0 0.0
2016-Sep-21 09:27N 26°05' W 080°07'0 0.0
2016-Sep-21 08:30N 26°05' W 080°07'0 0.0
2016-Sep-21 05:30N 26°05' W 080°07'0 0.0
2016-Sep-21 03:33N 26°05' W 080°07'0 0.0
2016-Sep-21 02:33N 26°05' W 080°07'0 0.0
2016-Sep-20 17:33N 26°05' W 080°07'0 0.0
2016-Sep-20 14:21N 26°05' W 080°07'0 0.0
2016-Sep-20 13:24N 26°05' W 080°07'20 6.9
2016-Sep-20 10:34N 25°50' W 079°54'  
Track history (hours):
 
Tides and Currents Weather Stations Pressure Air Temp Water Temp Dewpoint Dewpoint Depression Visibility Wind Speed Wind Dir Waves Ship Positions

Caribe Navigator

Last reported at 2016-Sep-29 08:32 UTC. Time now 2016-Sep-29 11:52 UTC.
Position N 26°05' W 080°07'.

Length 100 m; draft 15.2 m.

Type: Cargo ship. MMSI: 305289000.

Date/timePositionNaut miles runAvg speedWind from/ knotsBaromVisibWave heightAir tempDewpointWater temp
2016-Sep-29 08:32N 26°05' W 080°07'0 0.0
2016-Sep-29 07:32N 26°05' W 080°07'0 0.0
2016-Sep-29 00:23N 26°05' W 080°07'0 0.0
2016-Sep-28 21:26N 26°05' W 080°07'0 0.0
2016-Sep-28 19:26N 26°05' W 080°07'0 0.0
2016-Sep-28 16:29N 26°05' W 080°07'0 0.0
2016-Sep-28 15:29N 26°05' W 080°07'0 0.0
2016-Sep-28 12:32N 26°05' W 080°07'0 0.0
2016-Sep-28 08:31N 26°05' W 080°07'0 0.0
2016-Sep-28 03:31N 26°05' W 080°07'0 0.0
2016-Sep-28 02:31N 26°05' W 080°07'0 0.0
2016-Sep-28 01:31N 26°05' W 080°07'7 3.7
2016-Sep-27 23:33N 25°59' W 080°03'15 3.6
2016-Sep-27 19:33N 25°46' W 080°10'0 0.0
2016-Sep-27 14:32N 25°46' W 080°10'0 0.0
2016-Sep-27 13:32N 25°46' W 080°10'0 0.0
2016-Sep-27 10:33N 25°46' W 080°10'  
2016-Sep-22 23:17N 25°21' W 080°02'2810.2
2016-Sep-22 20:33N 25°48' W 080°02'18 2.2
2016-Sep-22 12:25N 26°05' W 080°07'0 0.0
2016-Sep-22 04:31N 26°05' W 080°07'0 0.0
2016-Sep-22 03:28N 26°05' W 080°07'0 0.0
2016-Sep-22 00:19N 26°05' W 080°07'0 0.0
2016-Sep-21 23:31N 26°05' W 080°07'0 0.0
2016-Sep-21 22:31N 26°05' W 080°07'0 0.0
2016-Sep-21 19:22N 26°05' W 080°07'0 0.0
2016-Sep-21 16:25N 26°05' W 080°07'0 0.0
2016-Sep-21 09:27N 26°05' W 080°07'0 0.0
2016-Sep-21 08:30N 26°05' W 080°07'0 0.0
2016-Sep-21 05:30N 26°05' W 080°07'0 0.0
2016-Sep-21 03:33N 26°05' W 080°07'0 0.0
2016-Sep-21 02:33N 26°05' W 080°07'0 0.0
2016-Sep-20 17:33N 26°05' W 080°07'0 0.0
2016-Sep-20 14:21N 26°05' W 080°07'0 0.0
2016-Sep-20 13:24N 26°05' W 080°07'20 6.9
2016-Sep-20 10:34N 25°50' W 079°54'  

Dump ship's entire track history